createdAt,value
2022-09-15T00:00:27.984Z,9.86
2022-09-15T00:02:54.827Z,9.82
2022-09-15T00:05:21.595Z,9.76
2022-09-15T00:07:48.440Z,9.80
2022-09-15T00:10:15.298Z,9.76
2022-09-15T00:12:42.011Z,9.83
2022-09-15T00:15:09.290Z,9.79
2022-09-15T00:17:36.065Z,9.81
2022-09-15T00:20:06.158Z,9.73
2022-09-15T00:22:33.475Z,9.74
2022-09-15T00:25:00.405Z,9.75
2022-09-15T00:27:27.144Z,9.78
2022-09-15T00:29:53.814Z,9.85
2022-09-15T00:32:20.533Z,9.82
2022-09-15T00:34:49.649Z,9.78
2022-09-15T00:37:16.393Z,9.85
2022-09-15T00:39:43.385Z,9.80
2022-09-15T00:42:23.722Z,9.83
2022-09-15T00:44:59.575Z,9.82
2022-09-15T00:47:34.348Z,9.77
2022-09-15T00:50:16.326Z,9.72
2022-09-15T00:52:47.998Z,9.69
2022-09-15T00:55:47.467Z,9.70
2022-09-15T00:58:37.071Z,9.66
2022-09-15T01:01:07.624Z,9.64
2022-09-15T01:03:35.645Z,9.72
2022-09-15T01:06:10.433Z,9.69
2022-09-15T01:08:56.827Z,9.67
2022-09-15T01:11:23.706Z,9.70
2022-09-15T01:13:50.342Z,9.65
2022-09-15T01:16:35.581Z,9.69
2022-09-15T01:19:11.978Z,9.66
2022-09-15T01:22:03.683Z,9.62
2022-09-15T01:25:14.664Z,9.65
2022-09-15T01:28:09.144Z,9.64
2022-09-15T01:30:56.635Z,9.60
2022-09-15T01:33:41.227Z,9.59
2022-09-15T01:36:13.998Z,9.60
2022-09-15T01:38:52.855Z,9.58
2022-09-15T01:41:32.936Z,9.56
2022-09-15T01:44:06.518Z,9.49
2022-09-15T01:46:37.501Z,9.54
2022-09-15T01:49:06.850Z,9.48
2022-09-15T01:51:35.919Z,9.51
2022-09-15T01:54:05.613Z,9.48
2022-09-15T01:56:32.760Z,9.50
2022-09-15T01:58:59.704Z,9.47
2022-09-15T02:01:34.912Z,9.41
2022-09-15T02:04:12.733Z,9.41
2022-09-15T02:07:07.162Z,9.36
2022-09-15T02:09:40.211Z,9.36
2022-09-15T02:12:17.573Z,9.32
2022-09-15T02:15:15.089Z,9.22
2022-09-15T02:17:46.094Z,9.20
2022-09-15T02:20:25.092Z,9.18
2022-09-15T02:22:57.262Z,9.10
2022-09-15T02:25:32.062Z,9.06
2022-09-15T02:28:04.574Z,9.09
2022-09-15T02:30:36.214Z,9.05
2022-09-15T02:33:08.339Z,9.00
2022-09-15T02:35:36.939Z,9.01
2022-09-15T02:38:07.115Z,8.98
2022-09-15T02:40:33.983Z,8.97
2022-09-15T02:43:03.009Z,8.98
2022-09-15T02:45:31.243Z,8.97
2022-09-15T02:47:58.916Z,8.95
2022-09-15T02:50:26.854Z,8.92
2022-09-15T02:52:55.062Z,8.88
2022-09-15T02:55:22.867Z,8.83
2022-09-15T02:57:49.594Z,8.78
2022-09-15T03:00:18.692Z,8.82
2022-09-15T03:02:51.981Z,8.82
2022-09-15T03:05:21.542Z,8.79
2022-09-15T03:07:48.572Z,8.83
2022-09-15T03:10:16.199Z,8.81
2022-09-15T03:12:48.161Z,8.79
2022-09-15T03:15:17.700Z,8.76
2022-09-15T03:17:46.446Z,8.75
2022-09-15T03:20:16.918Z,8.72
2022-09-15T03:22:44.085Z,8.68
2022-09-15T03:25:11.443Z,8.69
2022-09-15T03:27:38.639Z,8.69
2022-09-15T03:30:06.998Z,8.65
2022-09-15T03:32:33.700Z,8.56
2022-09-15T03:35:00.595Z,8.59
2022-09-15T03:37:27.593Z,8.60
2022-09-15T03:39:54.390Z,8.57
2022-09-15T03:42:21.453Z,8.59
2022-09-15T03:44:48.252Z,8.51
2022-09-15T03:47:14.941Z,8.56
2022-09-15T03:49:41.761Z,8.57
2022-09-15T03:52:08.461Z,8.56
2022-09-15T03:54:35.551Z,8.47
2022-09-15T03:57:03.437Z,8.41
2022-09-15T03:59:30.168Z,8.32
2022-09-15T04:01:57.112Z,8.25
2022-09-15T04:04:24.067Z,8.18
2022-09-15T04:06:50.840Z,8.22
2022-09-15T04:09:20.271Z,8.18
2022-09-15T04:11:47.908Z,8.19
2022-09-15T04:14:14.710Z,8.20
2022-09-15T04:16:41.565Z,8.21
2022-09-15T04:19:08.335Z,8.26
2022-09-15T04:21:35.027Z,8.31
2022-09-15T04:24:04.706Z,8.33
2022-09-15T04:26:34.408Z,8.38
2022-09-15T04:29:04.625Z,8.38
2022-09-15T04:31:33.172Z,8.39
2022-09-15T04:34:00.037Z,8.33
2022-09-15T04:36:28.464Z,8.40
2022-09-15T04:38:56.215Z,8.37
2022-09-15T04:41:23.810Z,8.41
2022-09-15T04:43:50.572Z,8.41
2022-09-15T04:46:18.488Z,8.48
2022-09-15T04:48:49.006Z,8.48
2022-09-15T04:51:21.217Z,8.47
2022-09-15T04:53:48.208Z,8.43
2022-09-15T04:56:17.497Z,8.46
2022-09-15T04:59:00.921Z,8.43
2022-09-15T05:01:33.074Z,8.43
2022-09-15T05:04:03.585Z,8.35
2022-09-15T05:06:30.390Z,8.35
2022-09-15T05:08:58.088Z,8.35
2022-09-15T05:11:25.677Z,8.29
2022-09-15T05:13:52.780Z,8.32
2022-09-15T05:16:22.549Z,8.33
2022-09-15T05:18:50.715Z,8.33
2022-09-15T05:21:19.895Z,8.39
2022-09-15T05:23:47.090Z,8.44
2022-09-15T05:26:19.768Z,8.39
2022-09-15T05:28:46.978Z,8.44
2022-09-15T05:31:28.017Z,8.41
2022-09-15T05:33:55.255Z,8.35
2022-09-15T05:36:25.363Z,8.34
2022-09-15T05:38:58.564Z,8.37
2022-09-15T05:41:27.456Z,8.35
2022-09-15T05:43:59.798Z,8.34
2022-09-15T05:46:27.987Z,8.30
2022-09-15T05:48:56.978Z,8.33
2022-09-15T05:51:23.926Z,8.34
2022-09-15T05:53:51.021Z,8.32
2022-09-15T05:56:18.470Z,8.29
2022-09-15T05:58:46.902Z,8.31
2022-09-15T06:01:25.201Z,8.32
2022-09-15T06:03:52.856Z,8.39
2022-09-15T06:06:19.957Z,8.39
2022-09-15T06:08:54.053Z,8.38
2022-09-15T06:11:29.132Z,8.44
2022-09-15T06:13:58.898Z,8.44
2022-09-15T06:16:26.686Z,8.82
2022-09-15T06:18:54.234Z,9.58
2022-09-15T06:21:23.659Z,10.21
2022-09-15T06:23:58.895Z,10.79
2022-09-15T06:26:27.297Z,10.90
2022-09-15T06:29:01.889Z,10.97
2022-09-15T06:31:34.245Z,11.27
2022-09-15T06:34:02.446Z,11.58
2022-09-15T06:36:31.140Z,12.21
2022-09-15T06:38:58.880Z,12.23
2022-09-15T06:41:26.038Z,12.31
2022-09-15T06:43:53.128Z,12.68
2022-09-15T06:46:23.567Z,12.59
2022-09-15T06:48:51.911Z,13.08
2022-09-15T06:51:20.930Z,12.74
2022-09-15T06:53:47.918Z,13.25
2022-09-15T06:56:17.742Z,13.75
2022-09-15T06:58:45.744Z,13.22
2022-09-15T07:01:14.933Z,13.89
2022-09-15T07:03:43.954Z,13.97
2022-09-15T07:06:14.830Z,14.52
2022-09-15T07:08:41.909Z,14.24
2022-09-15T07:11:10.127Z,14.02
2022-09-15T07:13:37.286Z,14.79
2022-09-15T07:16:06.446Z,14.78
2022-09-15T07:18:33.734Z,14.75
2022-09-15T07:21:03.201Z,14.39
2022-09-15T07:23:30.227Z,14.66
2022-09-15T07:26:22.733Z,14.29
2022-09-15T07:28:54.672Z,14.52
2022-09-15T07:31:23.664Z,14.62
2022-09-15T07:33:50.824Z,14.74
2022-09-15T07:36:17.871Z,14.50
2022-09-15T07:38:46.083Z,15.14
2022-09-15T07:41:15.834Z,15.09
2022-09-15T07:43:50.632Z,15.25
2022-09-15T07:46:18.955Z,15.06
2022-09-15T07:48:47.315Z,14.88
2022-09-15T07:51:15.113Z,15.48
2022-09-15T07:53:43.150Z,14.05
2022-09-15T07:56:10.253Z,14.03
2022-09-15T07:58:37.039Z,14.68
2022-09-15T08:01:11.538Z,15.65
2022-09-15T08:03:46.476Z,15.86
2022-09-15T08:06:13.707Z,16.32
2022-09-15T08:08:41.299Z,16.13
2022-09-15T08:11:09.729Z,16.31
2022-09-15T08:13:37.198Z,15.42
2022-09-15T08:16:07.160Z,16.20
2022-09-15T08:18:34.542Z,16.09
2022-09-15T08:21:07.739Z,16.73
2022-09-15T08:23:34.599Z,15.84
2022-09-15T08:26:01.545Z,16.39
2022-09-15T08:28:28.461Z,15.55
2022-09-15T08:31:03.007Z,15.74
2022-09-15T08:33:32.208Z,16.19
2022-09-15T08:36:05.278Z,15.86
2022-09-15T08:38:32.690Z,16.27
2022-09-15T08:41:03.261Z,16.91
2022-09-15T08:43:36.011Z,16.58
2022-09-15T08:46:10.390Z,16.22
2022-09-15T08:48:43.844Z,15.78
2022-09-15T08:51:19.704Z,16.06
2022-09-15T08:53:54.349Z,15.59
2022-09-15T08:56:21.234Z,15.53
2022-09-15T08:58:48.683Z,16.59
2022-09-15T09:01:39.938Z,15.89
2022-09-15T09:04:24.699Z,16.27
2022-09-15T09:07:17.553Z,16.33
2022-09-15T09:10:15.437Z,16.03
2022-09-15T09:13:04.827Z,16.05
2022-09-15T09:15:48.683Z,16.10
2022-09-15T09:18:27.903Z,16.60
2022-09-15T09:21:23.657Z,16.83
2022-09-15T09:24:01.545Z,16.77
2022-09-15T09:26:31.497Z,17.34
2022-09-15T09:29:00.483Z,16.61
2022-09-15T09:31:28.850Z,16.06
2022-09-15T09:34:13.879Z,15.64
2022-09-15T09:36:40.624Z,15.88
2022-09-15T09:39:14.006Z,16.72
2022-09-15T09:41:42.124Z,17.49
2022-09-15T09:44:14.968Z,16.51
2022-09-15T09:46:42.487Z,16.89
2022-09-15T09:49:23.022Z,16.77
2022-09-15T09:51:59.890Z,16.39
2022-09-15T09:54:28.759Z,15.59
2022-09-15T09:56:57.583Z,15.50
2022-09-15T09:59:47.076Z,16.52
2022-09-15T10:02:27.321Z,16.15
2022-09-15T10:05:12.295Z,16.64
2022-09-15T10:07:45.636Z,16.51
2022-09-15T10:10:23.682Z,15.99
2022-09-15T10:12:55.496Z,15.71
2022-09-15T10:15:28.222Z,15.02
2022-09-15T10:17:56.696Z,14.64
2022-09-15T10:20:32.852Z,13.76
2022-09-15T10:23:27.544Z,13.64
2022-09-15T10:26:00.017Z,13.57
2022-09-15T10:28:28.075Z,13.31
2022-09-15T10:31:27.428Z,13.33
2022-09-15T10:33:54.240Z,13.75
2022-09-15T10:36:28.708Z,14.11
2022-09-15T10:39:00.938Z,14.18
2022-09-15T10:41:28.668Z,14.39
2022-09-15T10:44:20.738Z,15.04
2022-09-15T10:46:53.452Z,14.77
2022-09-15T10:49:38.063Z,15.31
2022-09-15T10:52:20.429Z,15.46
2022-09-15T10:55:06.648Z,16.09
2022-09-15T10:57:51.948Z,16.20
2022-09-15T11:00:23.374Z,15.45
2022-09-15T11:03:05.675Z,14.22
2022-09-15T11:05:39.308Z,13.54
2022-09-15T11:08:21.100Z,13.10
2022-09-15T11:11:02.952Z,13.25
2022-09-15T11:13:41.191Z,13.35
2022-09-15T11:16:28.926Z,13.65
2022-09-15T11:19:10.208Z,14.50
2022-09-15T11:21:55.995Z,14.87
2022-09-15T11:24:31.700Z,14.90
2022-09-15T11:27:06.636Z,14.94
2022-09-15T11:29:33.313Z,15.26
2022-09-15T11:32:21.258Z,14.75
2022-09-15T11:35:26.430Z,15.17
2022-09-15T11:37:56.928Z,15.55
2022-09-15T11:40:38.417Z,14.84
2022-09-15T11:43:46.978Z,14.92
2022-09-15T11:46:21.992Z,14.67
2022-09-15T11:49:12.208Z,14.11
2022-09-15T11:51:45.533Z,14.63
2022-09-15T11:54:31.485Z,14.49
2022-09-15T11:57:00.151Z,14.27
2022-09-15T11:59:44.116Z,14.41
2022-09-15T12:02:30.308Z,14.44
2022-09-15T12:05:11.586Z,14.54
2022-09-15T12:08:04.576Z,15.31
2022-09-15T12:10:40.473Z,15.18
2022-09-15T12:13:16.564Z,15.09
2022-09-15T12:15:45.318Z,14.80
2022-09-15T12:18:44.850Z,13.92
2022-09-15T12:21:20.735Z,13.14
2022-09-15T12:24:02.876Z,13.72
2022-09-15T12:26:33.350Z,13.58
2022-09-15T12:29:02.662Z,14.04
2022-09-15T12:31:38.340Z,14.52
2022-09-15T12:34:06.505Z,14.68
2022-09-15T12:36:41.339Z,14.43
2022-09-15T12:39:23.281Z,14.07
2022-09-15T12:42:10.201Z,14.08
2022-09-15T12:44:45.950Z,14.36
2022-09-15T12:47:38.759Z,13.94
2022-09-15T12:50:31.349Z,14.31
2022-09-15T12:53:01.907Z,14.52
2022-09-15T12:55:37.627Z,14.28
2022-09-15T12:58:10.727Z,13.98
2022-09-15T13:01:00.709Z,14.12
2022-09-15T13:03:28.783Z,13.93
2022-09-15T13:06:34.100Z,14.30
2022-09-15T13:09:06.420Z,13.91
2022-09-15T13:11:50.253Z,13.92
2022-09-15T13:14:26.655Z,14.43
2022-09-15T13:16:59.725Z,14.18
2022-09-15T13:19:41.523Z,14.17
2022-09-15T13:22:11.258Z,13.89
2022-09-15T13:24:56.564Z,13.70
2022-09-15T13:27:39.976Z,12.82
2022-09-15T13:30:22.174Z,12.68
2022-09-15T13:33:09.276Z,12.71
2022-09-15T13:36:20.696Z,12.65
2022-09-15T13:39:22.317Z,12.96
2022-09-15T13:42:13.785Z,13.05
2022-09-15T13:44:55.969Z,13.26
2022-09-15T13:47:31.891Z,13.69
2022-09-15T13:50:21.472Z,13.57
2022-09-15T13:53:20.651Z,13.28
2022-09-15T13:55:48.373Z,13.71
2022-09-15T14:01:07.548Z,12.59
2022-09-15T14:04:00.775Z,12.93
2022-09-15T14:06:33.763Z,13.23
2022-09-15T14:09:10.639Z,13.45
2022-09-15T14:11:38.695Z,13.00
2022-09-15T14:14:11.589Z,13.10
2022-09-15T14:16:39.785Z,13.01
2022-09-15T14:19:28.441Z,13.17
2022-09-15T14:21:58.447Z,13.04
2022-09-15T14:24:32.264Z,12.88
2022-09-15T14:27:07.399Z,12.95
2022-09-15T14:29:40.506Z,12.99
2022-09-15T14:32:13.987Z,13.13
2022-09-15T14:34:42.328Z,13.02
2022-09-15T14:37:19.942Z,13.09
2022-09-15T14:39:51.505Z,12.91
2022-09-15T14:42:29.650Z,12.62
2022-09-15T14:48:08.498Z,11.93
2022-09-15T14:50:35.641Z,11.93
2022-09-15T14:53:14.314Z,12.39
2022-09-15T14:55:55.683Z,12.57
2022-09-15T14:58:46.722Z,12.69
2022-09-15T15:01:27.494Z,12.64
2022-09-15T15:04:10.568Z,12.46
2022-09-15T15:06:55.580Z,12.77
2022-09-15T15:09:32.009Z,12.46
2022-09-15T15:12:04.477Z,12.19
2022-09-15T15:14:31.428Z,12.41
2022-09-15T15:17:02.096Z,12.38
2022-09-15T15:19:38.912Z,12.50
2022-09-15T15:22:20.075Z,12.54
2022-09-15T15:24:52.577Z,12.39
2022-09-15T15:27:34.950Z,12.22
2022-09-15T15:30:30.538Z,12.12
2022-09-15T15:33:06.973Z,12.03
2022-09-15T15:35:35.835Z,12.15
2022-09-15T15:38:06.920Z,12.32
2022-09-15T15:40:37.571Z,12.35
2022-09-15T15:43:08.078Z,12.40
2022-09-15T15:45:47.256Z,12.26
2022-09-15T15:48:13.996Z,12.22
2022-09-15T15:50:40.701Z,12.11
2022-09-15T15:53:07.439Z,12.13
2022-09-15T15:55:42.024Z,12.14
2022-09-15T15:58:12.962Z,11.84
2022-09-15T16:00:53.935Z,11.89
2022-09-15T16:03:21.792Z,11.64
2022-09-15T16:05:51.528Z,11.70
2022-09-15T16:08:33.082Z,11.57
2022-09-15T16:11:03.011Z,11.51
2022-09-15T16:13:30.118Z,11.42
2022-09-15T16:16:00.242Z,11.67
2022-09-15T16:18:28.348Z,11.83
2022-09-15T16:20:55.176Z,11.78
2022-09-15T16:23:22.954Z,11.75
2022-09-15T16:26:02.476Z,11.89
2022-09-15T16:28:29.818Z,11.88
2022-09-15T16:30:57.140Z,11.92
2022-09-15T16:33:25.103Z,11.84
2022-09-15T16:36:09.253Z,11.85
2022-09-15T16:38:36.326Z,12.00
2022-09-15T16:41:06.176Z,11.97
2022-09-15T16:43:32.907Z,11.80
2022-09-15T16:45:59.624Z,11.79
2022-09-15T16:48:27.300Z,11.88
2022-09-15T16:51:17.218Z,11.77
2022-09-15T16:53:41.297Z,11.90
2022-09-15T16:56:11.620Z,11.81
2022-09-15T16:58:38.886Z,11.97
2022-09-15T17:01:06.594Z,11.92
2022-09-15T17:03:33.818Z,11.99
2022-09-15T17:06:03.035Z,11.83
2022-09-15T17:08:33.629Z,11.73
2022-09-15T17:11:02.848Z,11.60
2022-09-15T17:13:31.797Z,11.51
2022-09-15T17:16:00.409Z,11.48
2022-09-15T17:18:28.178Z,11.31
2022-09-15T17:20:54.902Z,11.38
2022-09-15T17:23:31.741Z,11.33
2022-09-15T17:26:01.161Z,11.24
2022-09-15T17:28:33.549Z,11.27
2022-09-15T17:31:02.978Z,11.21
2022-09-15T17:33:31.231Z,11.10
2022-09-15T17:35:58.337Z,11.12
2022-09-15T17:38:25.619Z,11.10
2022-09-15T17:40:52.889Z,11.16
2022-09-15T17:43:22.059Z,11.12
2022-09-15T17:45:50.029Z,11.09
2022-09-15T17:48:17.372Z,10.99
2022-09-15T17:50:45.389Z,10.92
2022-09-15T17:53:23.528Z,10.83
2022-09-15T17:55:51.238Z,10.79
2022-09-15T17:58:18.637Z,10.64
2022-09-15T18:00:46.411Z,10.74
2022-09-15T18:03:35.991Z,10.73
2022-09-15T18:06:07.006Z,10.72
2022-09-15T18:08:34.198Z,10.63
2022-09-15T18:11:01.745Z,10.58
2022-09-15T18:13:32.318Z,10.58
2022-09-15T18:16:06.763Z,10.45
2022-09-15T18:18:34.134Z,10.44
2022-09-15T18:21:01.169Z,10.39
2022-09-15T18:23:29.533Z,10.46
2022-09-15T18:25:56.785Z,10.30
2022-09-15T18:28:23.743Z,10.36
2022-09-15T18:30:51.606Z,10.23
2022-09-15T18:33:25.795Z,10.23
2022-09-15T18:35:55.871Z,10.23
2022-09-15T18:38:23.496Z,10.06
2022-09-15T18:40:53.571Z,9.94
2022-09-15T18:43:21.843Z,10.01
2022-09-15T18:45:49.214Z,10.02
2022-09-15T18:48:16.335Z,9.95
2022-09-15T18:50:44.597Z,9.88
2022-09-15T18:53:11.724Z,9.87
2022-09-15T18:55:41.921Z,9.88
2022-09-15T18:58:09.500Z,9.93
2022-09-15T19:00:36.416Z,9.80
2022-09-15T19:03:05.591Z,9.95
2022-09-15T19:05:33.220Z,9.85
2022-09-15T19:08:00.493Z,9.95
2022-09-15T19:10:27.441Z,9.96
2022-09-15T19:12:54.747Z,9.96
2022-09-15T19:15:24.592Z,9.95
2022-09-15T19:17:51.649Z,9.79
2022-09-15T19:20:18.486Z,9.73
2022-09-15T19:22:46.111Z,9.70
2022-09-15T19:25:13.515Z,9.75
2022-09-15T19:27:40.294Z,9.75
2022-09-15T19:30:10.083Z,9.76
2022-09-15T19:32:38.428Z,9.57
2022-09-15T19:35:06.253Z,9.55
2022-09-15T19:37:36.981Z,9.51
2022-09-15T19:40:08.665Z,9.51
2022-09-15T19:42:36.431Z,9.47
2022-09-15T19:45:03.547Z,9.51
2022-09-15T19:47:30.368Z,9.42
2022-09-15T19:49:57.052Z,9.42
2022-09-15T19:52:23.868Z,9.35
2022-09-15T19:54:50.496Z,9.29
2022-09-15T19:57:17.280Z,9.29
2022-09-15T19:59:44.763Z,9.35
2022-09-15T20:02:12.085Z,9.26
2022-09-15T20:04:39.908Z,9.24
2022-09-15T20:07:06.926Z,9.26
2022-09-15T20:09:33.940Z,9.23
2022-09-15T20:12:03.315Z,9.28
2022-09-15T20:14:31.096Z,9.25
2022-09-15T20:17:00.990Z,9.10
2022-09-15T20:19:28.746Z,9.04
2022-09-15T20:21:55.687Z,9.07
2022-09-15T20:24:23.935Z,9.13
2022-09-15T20:26:51.489Z,9.10
2022-09-15T20:29:18.779Z,9.07
2022-09-15T20:31:46.261Z,9.14
2022-09-15T20:34:13.050Z,9.08
2022-09-15T20:36:40.532Z,9.02
2022-09-15T20:39:12.833Z,9.05
2022-09-15T20:41:41.406Z,9.08
2022-09-15T20:44:09.535Z,9.08
2022-09-15T20:46:37.090Z,9.18
2022-09-15T20:49:04.750Z,9.31
2022-09-15T20:51:33.525Z,9.32
2022-09-15T20:54:03.420Z,9.34
2022-09-15T20:56:35.066Z,9.30
2022-09-15T20:59:04.394Z,9.37
2022-09-15T21:01:39.327Z,9.34
2022-09-15T21:04:08.457Z,9.23
2022-09-15T21:06:35.930Z,9.24
2022-09-15T21:09:03.787Z,9.19
2022-09-15T21:11:31.022Z,9.13
2022-09-15T21:13:58.743Z,9.08
2022-09-15T21:16:28.044Z,8.92
2022-09-15T21:18:57.006Z,8.91
2022-09-15T21:21:30.101Z,8.88
2022-09-15T21:24:03.886Z,8.92
2022-09-15T21:26:56.803Z,8.64
2022-09-15T21:29:24.030Z,8.64
2022-09-15T21:31:50.918Z,8.67
2022-09-15T21:34:17.681Z,8.60
2022-09-15T21:36:44.363Z,8.46
2022-09-15T21:39:11.196Z,8.39
2022-09-15T21:41:38.279Z,8.50
2022-09-15T21:44:05.073Z,8.55
2022-09-15T21:46:31.992Z,8.69
2022-09-15T21:49:00.207Z,8.60
2022-09-15T21:51:28.682Z,8.70
2022-09-15T21:53:57.426Z,8.58
2022-09-15T21:56:25.585Z,8.75
2022-09-15T21:58:52.418Z,8.74
2022-09-15T22:01:22.773Z,8.74
2022-09-15T22:03:55.549Z,8.85
2022-09-15T22:06:30.147Z,8.80
2022-09-15T22:08:57.681Z,8.74
2022-09-15T22:11:25.572Z,8.76
2022-09-15T22:13:52.363Z,8.72
2022-09-15T22:16:21.446Z,8.70
2022-09-15T22:18:48.848Z,8.66
2022-09-15T22:21:19.823Z,8.65
2022-09-15T22:23:48.330Z,8.63
2022-09-15T22:26:20.578Z,8.63
2022-09-15T22:28:47.657Z,8.59
2022-09-15T22:31:16.593Z,8.50
2022-09-15T22:33:43.888Z,8.45
2022-09-15T22:39:14.210Z,8.38
2022-09-15T22:41:41.004Z,8.29
2022-09-15T22:44:17.958Z,8.27
2022-09-15T22:46:44.696Z,8.25
2022-09-15T22:49:11.653Z,8.17
2022-09-15T22:51:38.443Z,8.15
2022-09-15T22:54:05.365Z,8.21
2022-09-15T22:56:32.172Z,8.22
2022-09-15T22:58:59.243Z,8.21
2022-09-15T23:01:28.796Z,8.25
2022-09-15T23:04:01.252Z,8.27
2022-09-15T23:06:30.877Z,8.36
2022-09-15T23:08:59.729Z,8.49
2022-09-15T23:11:28.552Z,8.51
2022-09-15T23:13:56.339Z,8.34
2022-09-15T23:16:24.300Z,8.35
2022-09-15T23:18:51.601Z,8.26
2022-09-15T23:21:18.958Z,8.22
2022-09-15T23:23:47.675Z,8.15
2022-09-15T23:26:16.622Z,8.17
2022-09-15T23:28:43.508Z,8.17
2022-09-15T23:31:12.864Z,8.10
2022-09-15T23:33:40.004Z,8.07
2022-09-15T23:36:09.780Z,8.11
2022-09-15T23:38:41.539Z,8.02
2022-09-15T23:41:09.926Z,8.08
2022-09-15T23:43:36.922Z,8.05
2022-09-15T23:46:04.466Z,8.05
2022-09-15T23:48:32.537Z,8.07
2022-09-15T23:50:59.530Z,8.04
2022-09-15T23:53:26.331Z,8.13
2022-09-15T23:55:52.999Z,8.11
2022-09-15T23:58:19.840Z,8.06
